createdAt,value
2018-09-29T00:00:01.436Z,14.79
2018-09-29T00:01:01.378Z,14.85
2018-09-29T00:02:01.284Z,14.79
2018-09-29T00:03:01.231Z,14.77
2018-09-29T00:04:01.124Z,14.78
2018-09-29T00:05:01.046Z,14.86
2018-09-29T00:06:00.968Z,14.79
2018-09-29T00:07:00.928Z,14.77
2018-09-29T00:08:00.815Z,14.84
2018-09-29T00:09:00.746Z,14.78
2018-09-29T00:10:00.718Z,14.78
2018-09-29T00:11:00.581Z,14.70
2018-09-29T00:12:00.516Z,14.72
2018-09-29T00:13:00.430Z,14.62
2018-09-29T00:14:00.349Z,14.62
2018-09-29T00:15:00.276Z,14.66
2018-09-29T00:16:00.192Z,14.77
2018-09-29T00:17:00.115Z,14.63
2018-09-29T00:18:00.040Z,14.70
2018-09-29T00:18:59.965Z,14.60
2018-09-29T00:19:59.885Z,14.63
2018-09-29T00:20:59.803Z,14.60
2018-09-29T00:21:59.729Z,14.65
2018-09-29T00:22:59.645Z,14.60
2018-09-29T00:23:59.574Z,14.68
2018-09-29T00:24:59.501Z,14.65
2018-09-29T00:25:59.424Z,14.55
2018-09-29T00:26:59.333Z,14.53
2018-09-29T00:27:59.258Z,14.48
2018-09-29T00:28:59.180Z,14.44
2018-09-29T00:29:59.101Z,14.44
2018-09-29T00:30:59.024Z,14.51
2018-09-29T00:31:58.947Z,14.44
2018-09-29T00:32:58.875Z,14.37
2018-09-29T00:33:58.792Z,14.32
2018-09-29T00:34:58.712Z,14.41
2018-09-29T00:35:58.639Z,14.32
2018-09-29T00:36:58.557Z,14.28
2018-09-29T00:37:58.479Z,14.32
2018-09-29T00:38:58.400Z,14.30
2018-09-29T00:39:58.321Z,14.35
2018-09-29T00:40:58.244Z,14.40
2018-09-29T00:41:58.166Z,14.29
2018-09-29T00:42:58.088Z,14.28
2018-09-29T00:43:58.021Z,14.32
2018-09-29T00:44:57.935Z,14.37
2018-09-29T00:45:57.855Z,14.29
2018-09-29T00:46:57.776Z,14.33
2018-09-29T00:47:57.699Z,14.25
2018-09-29T00:48:57.622Z,14.18
2018-09-29T00:49:57.542Z,14.14
2018-09-29T00:50:57.462Z,14.17
2018-09-29T00:51:57.384Z,14.20
2018-09-29T00:52:57.315Z,14.11
2018-09-29T00:53:57.228Z,14.11
2018-09-29T00:54:57.161Z,14.07
2018-09-29T00:55:57.071Z,14.10
2018-09-29T00:56:56.994Z,14.05
2018-09-29T00:57:56.919Z,14.07
2018-09-29T00:58:56.839Z,14.08
2018-09-29T00:59:56.761Z,14.05
2018-09-29T01:00:56.682Z,14.07
2018-09-29T01:01:56.606Z,14.04
2018-09-29T01:02:56.529Z,14.05
2018-09-29T01:03:56.455Z,14.11
2018-09-29T01:04:56.376Z,14.05
2018-09-29T01:05:56.292Z,14.11
2018-09-29T01:06:56.218Z,14.08
2018-09-29T01:07:56.135Z,14.03
2018-09-29T01:08:56.054Z,14.07
2018-09-29T01:09:55.987Z,14.05
2018-09-29T01:10:55.904Z,14.05
2018-09-29T01:11:55.821Z,14.05
2018-09-29T01:12:55.749Z,14.05
2018-09-29T01:14:03.429Z,14.03
2018-09-29T01:16:00.028Z,14.03
2018-09-29T01:16:59.886Z,14.00
2018-09-29T01:19:04.236Z,13.92
2018-09-29T01:20:04.104Z,13.90
2018-09-29T01:22:08.445Z,13.79
2018-09-29T01:23:08.335Z,13.83
2018-09-29T01:25:01.610Z,13.87
2018-09-29T01:26:01.481Z,13.78
2018-09-29T01:28:05.835Z,13.74
2018-09-29T01:29:05.707Z,13.85
2018-09-29T01:31:10.010Z,13.74
2018-09-29T01:32:09.941Z,13.75
2018-09-29T01:34:14.275Z,13.65
2018-09-29T01:35:14.261Z,13.56
2018-09-29T01:37:18.454Z,13.59
2018-09-29T01:38:18.369Z,13.57
2018-09-29T01:40:22.714Z,13.53
2018-09-29T01:41:22.587Z,13.56
2018-09-29T01:43:26.949Z,13.57
2018-09-29T01:44:26.805Z,13.46
2018-09-29T01:46:31.109Z,13.44
2018-09-29T01:47:31.027Z,13.41
2018-09-29T01:49:35.373Z,13.42
2018-09-29T01:50:35.247Z,13.42
2018-09-29T01:51:35.170Z,13.37
2018-09-29T01:52:35.091Z,13.37
2018-09-29T01:53:35.014Z,13.33
2018-09-29T01:54:34.932Z,13.37
2018-09-29T01:55:34.858Z,13.35
2018-09-29T01:56:34.776Z,13.23
2018-09-29T01:57:34.696Z,13.19
2018-09-29T01:58:34.618Z,13.23
2018-09-29T01:59:34.556Z,13.27
2018-09-29T02:00:34.459Z,13.25
2018-09-29T02:01:34.385Z,13.30
2018-09-29T02:02:34.303Z,13.22
2018-09-29T02:03:34.224Z,13.30
2018-09-29T02:04:34.144Z,13.30
2018-09-29T02:05:34.067Z,13.30
2018-09-29T02:06:33.985Z,13.19
2018-09-29T02:07:33.911Z,13.27
2018-09-29T02:08:33.833Z,13.25
2018-09-29T02:09:33.748Z,13.22
2018-09-29T02:10:33.669Z,13.22
2018-09-29T02:11:33.602Z,13.12
2018-09-29T02:12:33.512Z,13.15
2018-09-29T02:13:33.433Z,13.12
2018-09-29T02:14:33.354Z,13.19
2018-09-29T02:15:33.271Z,13.11
2018-09-29T02:16:33.196Z,13.12
2018-09-29T02:17:33.115Z,13.11
2018-09-29T02:18:33.037Z,13.11
2018-09-29T02:19:32.956Z,13.09
2018-09-29T02:20:32.879Z,13.01
2018-09-29T02:21:32.807Z,13.11
2018-09-29T02:22:32.721Z,13.05
2018-09-29T02:23:32.641Z,13.03
2018-09-29T02:24:32.564Z,12.93
2018-09-29T02:25:32.484Z,13.00
2018-09-29T02:26:32.405Z,12.94
2018-09-29T02:27:32.330Z,12.97
2018-09-29T02:28:32.269Z,12.94
2018-09-29T02:29:32.170Z,12.93
2018-09-29T02:30:32.094Z,12.87
2018-09-29T02:31:32.008Z,12.94
2018-09-29T02:32:31.953Z,12.94
2018-09-29T02:33:31.853Z,12.87
2018-09-29T02:34:31.773Z,12.93
2018-09-29T02:35:31.692Z,12.90
2018-09-29T02:36:31.613Z,12.87
2018-09-29T02:37:31.534Z,12.91
2018-09-29T02:38:31.472Z,12.95
2018-09-29T02:39:31.390Z,12.85
2018-09-29T02:40:31.298Z,12.87
2018-09-29T02:41:31.220Z,12.82
2018-09-29T02:42:31.140Z,12.82
2018-09-29T02:43:31.060Z,12.76
2018-09-29T02:44:30.984Z,12.80
2018-09-29T02:45:30.903Z,12.82
2018-09-29T02:46:30.824Z,12.73
2018-09-29T02:47:30.745Z,12.76
2018-09-29T02:48:30.666Z,12.82
2018-09-29T02:49:30.587Z,12.75
2018-09-29T02:50:30.505Z,12.70
2018-09-29T02:51:30.426Z,12.70
2018-09-29T02:52:30.356Z,12.72
2018-09-29T02:53:30.267Z,12.64
2018-09-29T02:54:30.190Z,12.72
2018-09-29T02:55:30.110Z,12.67
2018-09-29T02:56:30.031Z,12.70
2018-09-29T02:57:29.960Z,12.58
2018-09-29T02:58:29.887Z,12.68
2018-09-29T02:59:29.792Z,12.61
2018-09-29T03:00:29.721Z,12.50
2018-09-29T03:01:29.637Z,12.62
2018-09-29T03:02:29.558Z,12.50
2018-09-29T03:03:29.476Z,12.49
2018-09-29T03:04:29.401Z,12.54
2018-09-29T03:05:29.321Z,12.42
2018-09-29T03:06:29.249Z,12.45
2018-09-29T03:07:29.159Z,12.45
2018-09-29T03:08:29.081Z,12.47
2018-09-29T03:09:29.012Z,12.42
2018-09-29T03:10:28.924Z,12.37
2018-09-29T03:11:28.843Z,12.37
2018-09-29T03:12:28.762Z,12.37
2018-09-29T03:13:28.684Z,12.40
2018-09-29T03:14:28.602Z,12.31
2018-09-29T03:15:28.525Z,12.37
2018-09-29T03:16:28.445Z,12.40
2018-09-29T03:17:28.366Z,12.32
2018-09-29T03:18:28.297Z,12.36
2018-09-29T03:19:28.223Z,12.28
2018-09-29T03:20:28.134Z,12.25
2018-09-29T03:21:28.093Z,12.25
2018-09-29T03:22:27.985Z,12.29
2018-09-29T03:23:27.891Z,12.22
2018-09-29T03:24:27.814Z,12.18
2018-09-29T03:25:27.734Z,12.20
2018-09-29T03:26:27.660Z,12.17
2018-09-29T03:27:27.573Z,12.21
2018-09-29T03:28:27.493Z,12.17
2018-09-29T03:29:27.414Z,12.25
2018-09-29T03:30:27.335Z,12.17
2018-09-29T03:31:27.285Z,12.22
2018-09-29T03:32:27.178Z,12.22
2018-09-29T03:33:27.100Z,12.24
2018-09-29T03:34:27.014Z,12.07
2018-09-29T03:35:26.942Z,12.03
2018-09-29T03:36:26.875Z,12.07
2018-09-29T03:37:26.785Z,12.04
2018-09-29T03:38:26.695Z,12.03
2018-09-29T03:39:26.619Z,12.12
2018-09-29T03:40:26.537Z,12.02
2018-09-29T03:41:26.459Z,12.04
2018-09-29T03:42:26.377Z,12.03
2018-09-29T03:43:26.299Z,12.02
2018-09-29T03:44:26.223Z,12.09
2018-09-29T03:45:26.140Z,11.97
2018-09-29T03:46:26.062Z,12.00
2018-09-29T03:47:25.982Z,12.09
2018-09-29T03:48:25.907Z,12.06
2018-09-29T03:49:25.819Z,12.06
2018-09-29T03:50:25.739Z,12.03
2018-09-29T03:51:25.660Z,12.04
2018-09-29T03:52:25.581Z,12.10
2018-09-29T03:53:25.536Z,12.03
2018-09-29T03:54:25.423Z,11.97
2018-09-29T03:55:25.354Z,11.84
2018-09-29T03:56:25.262Z,11.97
2018-09-29T03:57:25.193Z,11.94
2018-09-29T03:58:25.104Z,11.91
2018-09-29T03:59:25.025Z,11.86
2018-09-29T04:00:24.954Z,11.90
2018-09-29T04:01:24.863Z,11.88
2018-09-29T04:02:24.782Z,11.81
2018-09-29T04:03:24.703Z,11.78
2018-09-29T04:04:24.623Z,11.81
2018-09-29T04:05:24.544Z,11.75
2018-09-29T04:06:24.464Z,11.86
2018-09-29T04:07:24.426Z,11.70
2018-09-29T04:08:24.304Z,11.72
2018-09-29T04:09:24.225Z,11.75
2018-09-29T04:10:24.153Z,11.66
2018-09-29T04:11:24.067Z,11.65
2018-09-29T04:12:23.983Z,11.62
2018-09-29T04:13:23.908Z,11.45
2018-09-29T04:14:23.829Z,11.59
2018-09-29T04:15:23.743Z,11.57
2018-09-29T04:16:23.666Z,11.55
2018-09-29T04:17:23.585Z,11.57
2018-09-29T04:18:23.515Z,11.59
2018-09-29T04:19:23.423Z,11.55
2018-09-29T04:20:23.355Z,11.47
2018-09-29T04:21:23.282Z,11.45
2018-09-29T04:22:23.183Z,11.60
2018-09-29T04:23:23.109Z,11.54
2018-09-29T04:24:23.053Z,11.55
2018-09-29T04:25:22.947Z,11.59
2018-09-29T04:26:22.864Z,11.52
2018-09-29T04:27:22.783Z,11.60
2018-09-29T04:28:22.712Z,11.57
2018-09-29T04:29:22.628Z,11.54
2018-09-29T04:30:22.563Z,11.45
2018-09-29T04:31:22.465Z,11.52
2018-09-29T04:32:22.387Z,11.55
2018-09-29T04:33:22.311Z,11.54
2018-09-29T04:34:22.223Z,11.55
2018-09-29T04:35:22.146Z,11.55
2018-09-29T04:36:22.067Z,11.45
2018-09-29T04:37:21.987Z,11.45
2018-09-29T04:38:21.904Z,11.48
2018-09-29T04:39:21.823Z,11.50
2018-09-29T04:40:21.745Z,11.45
2018-09-29T04:41:21.671Z,11.47
2018-09-29T04:42:21.584Z,11.47
2018-09-29T04:43:21.503Z,11.47
2018-09-29T04:44:21.426Z,11.41
2018-09-29T04:45:21.344Z,11.45
2018-09-29T04:46:21.276Z,11.40
2018-09-29T04:47:21.184Z,11.45
2018-09-29T04:48:21.104Z,11.41
2018-09-29T04:49:21.024Z,11.36
2018-09-29T04:50:20.944Z,11.36
2018-09-29T04:51:20.866Z,11.27
2018-09-29T04:52:20.783Z,11.22
2018-09-29T04:53:20.705Z,11.17
2018-09-29T04:54:20.623Z,11.25
2018-09-29T04:55:20.542Z,11.11
2018-09-29T04:56:20.467Z,11.14
2018-09-29T04:57:20.388Z,11.23
2018-09-29T04:58:20.303Z,11.05
2018-09-29T04:59:20.220Z,11.18
2018-09-29T05:00:20.142Z,11.14
2018-09-29T05:01:20.066Z,11.12
2018-09-29T05:02:19.984Z,11.14
2018-09-29T05:03:19.917Z,11.04
2018-09-29T05:04:19.823Z,10.99
2018-09-29T05:05:19.743Z,11.02
2018-09-29T05:06:19.700Z,10.99
2018-09-29T05:07:19.581Z,11.04
2018-09-29T05:08:19.500Z,11.05
2018-09-29T05:09:19.423Z,11.07
2018-09-29T05:10:19.339Z,11.10
2018-09-29T05:11:19.260Z,10.99
2018-09-29T05:12:19.177Z,11.11
2018-09-29T05:13:19.113Z,11.07
2018-09-29T05:14:19.020Z,10.97
2018-09-29T05:15:18.938Z,11.00
2018-09-29T05:16:18.858Z,10.93
2018-09-29T05:17:18.777Z,10.97
2018-09-29T05:18:18.699Z,10.89
2018-09-29T05:19:18.619Z,10.89
2018-09-29T05:20:18.538Z,10.94
2018-09-29T05:21:18.463Z,10.87
2018-09-29T05:22:18.376Z,10.90
2018-09-29T05:23:18.376Z,10.97
2018-09-29T05:24:18.217Z,11.02
2018-09-29T05:25:18.173Z,10.96
2018-09-29T05:26:18.064Z,11.08
2018-09-29T05:27:17.978Z,11.14
2018-09-29T05:28:17.896Z,11.08
2018-09-29T05:29:17.818Z,11.18
2018-09-29T05:30:17.734Z,11.08
2018-09-29T05:31:17.653Z,11.05
2018-09-29T05:32:17.573Z,11.02
2018-09-29T05:33:17.507Z,11.04
2018-09-29T05:34:17.411Z,11.00
2018-09-29T05:35:17.335Z,10.92
2018-09-29T05:36:17.253Z,10.92
2018-09-29T05:37:17.174Z,10.93
2018-09-29T05:38:17.133Z,10.86
2018-09-29T05:39:17.018Z,10.97
2018-09-29T05:40:16.933Z,10.96
2018-09-29T05:41:16.851Z,10.90
2018-09-29T05:42:16.773Z,10.89
2018-09-29T05:43:16.691Z,10.93
2018-09-29T05:44:16.609Z,10.84
2018-09-29T05:45:16.531Z,10.96
2018-09-29T05:46:16.452Z,10.96
2018-09-29T05:47:16.373Z,10.87
2018-09-29T05:48:16.400Z,10.93
2018-09-29T05:49:16.210Z,10.94
2018-09-29T05:50:16.128Z,11.04
2018-09-29T05:51:16.055Z,11.02
2018-09-29T05:52:15.967Z,11.07
2018-09-29T05:53:15.891Z,11.14
2018-09-29T05:54:15.819Z,11.07
2018-09-29T05:55:15.726Z,11.00
2018-09-29T05:56:15.653Z,11.07
2018-09-29T05:57:15.569Z,11.00
2018-09-29T05:58:15.490Z,11.02
2018-09-29T05:59:15.409Z,11.02
2018-09-29T06:00:15.419Z,11.00
2018-09-29T06:01:16.690Z,11.04
2018-09-29T06:02:15.163Z,10.99
2018-09-29T06:03:15.084Z,10.90
2018-09-29T06:04:15.006Z,10.94
2018-09-29T06:05:14.966Z,10.94
2018-09-29T06:06:14.846Z,11.07
2018-09-29T06:07:14.864Z,10.99
2018-09-29T06:08:14.688Z,11.07
2018-09-29T06:09:14.606Z,10.99
2018-09-29T06:10:14.551Z,11.12
2018-09-29T06:11:14.457Z,11.11
2018-09-29T06:12:14.362Z,11.11
2018-09-29T06:13:14.359Z,11.11
2018-09-29T06:14:14.354Z,11.12
2018-09-29T06:15:14.121Z,11.22
2018-09-29T06:16:14.045Z,11.22
2018-09-29T06:17:13.969Z,11.17
2018-09-29T06:18:13.882Z,11.12
2018-09-29T06:19:13.801Z,11.11
2018-09-29T06:20:13.722Z,11.26
2018-09-29T06:21:13.641Z,11.26
2018-09-29T06:22:13.561Z,11.27
2018-09-29T06:23:13.482Z,11.29
2018-09-29T06:24:13.402Z,11.33
2018-09-29T06:25:13.321Z,11.35
2018-09-29T06:26:13.253Z,11.36
2018-09-29T06:27:13.164Z,11.30
2018-09-29T06:28:13.086Z,11.41
2018-09-29T06:29:13.001Z,11.47
2018-09-29T06:30:12.920Z,11.44
2018-09-29T06:31:12.854Z,11.41
2018-09-29T06:32:12.761Z,11.48
2018-09-29T06:33:12.683Z,11.51
2018-09-29T06:34:12.651Z,11.48
2018-09-29T06:35:12.523Z,11.59
2018-09-29T06:36:12.441Z,11.57
2018-09-29T06:37:12.362Z,11.65
2018-09-29T06:38:12.283Z,11.55
2018-09-29T06:39:12.201Z,11.59
2018-09-29T06:40:12.121Z,11.62
2018-09-29T06:41:12.041Z,11.60
2018-09-29T06:42:11.963Z,11.63
2018-09-29T06:43:11.885Z,11.72
2018-09-29T06:44:11.803Z,11.68
2018-09-29T06:45:11.754Z,11.70
2018-09-29T06:46:11.657Z,11.72
2018-09-29T06:47:11.571Z,11.75
2018-09-29T06:48:11.547Z,11.72
2018-09-29T06:49:11.404Z,11.80
2018-09-29T06:50:11.323Z,11.77
2018-09-29T06:51:11.244Z,11.77
2018-09-29T06:52:11.182Z,11.83
2018-09-29T06:53:11.085Z,11.84
2018-09-29T06:54:11.005Z,11.99
2018-09-29T06:55:10.926Z,11.88
2018-09-29T06:56:10.960Z,11.99
2018-09-29T06:57:10.771Z,11.87
2018-09-29T06:58:10.691Z,11.94
2018-09-29T06:59:10.609Z,12.02
2018-09-29T07:00:10.529Z,11.95
2018-09-29T07:01:10.455Z,12.00
2018-09-29T07:02:10.384Z,12.03
2018-09-29T07:03:10.444Z,12.03
2018-09-29T07:04:10.226Z,11.97
2018-09-29T07:05:10.133Z,12.09
2018-09-29T07:06:10.071Z,12.10
2018-09-29T07:07:09.970Z,12.15
2018-09-29T07:08:09.892Z,12.12
2018-09-29T07:09:09.816Z,12.12
2018-09-29T07:10:09.732Z,12.17
2018-09-29T07:11:09.656Z,12.20
2018-09-29T07:12:09.590Z,12.25
2018-09-29T07:13:09.495Z,12.22
2018-09-29T07:14:09.431Z,12.18
2018-09-29T07:16:42.384Z,12.18
2018-09-29T07:17:42.257Z,12.18
2018-09-29T07:19:46.558Z,12.27
2018-09-29T07:20:46.472Z,12.24
2018-09-29T07:21:46.417Z,12.29
2018-09-29T07:22:46.384Z,12.32
2018-09-29T07:23:46.266Z,12.25
2018-09-29T07:24:46.169Z,12.29
2018-09-29T07:25:46.089Z,12.39
2018-09-29T07:26:45.996Z,12.32
2018-09-29T07:27:45.920Z,12.37
2018-09-29T07:28:45.838Z,12.43
2018-09-29T07:29:45.760Z,12.40
2018-09-29T07:30:45.682Z,12.39
2018-09-29T07:31:45.602Z,12.42
2018-09-29T07:32:45.522Z,12.36
2018-09-29T07:33:45.443Z,12.49
2018-09-29T07:34:45.365Z,12.53
2018-09-29T07:35:45.284Z,12.54
2018-09-29T07:36:45.295Z,12.49
2018-09-29T07:37:45.125Z,12.53
2018-09-29T07:38:45.046Z,12.54
2018-09-29T07:39:44.969Z,12.57
2018-09-29T07:40:44.894Z,12.60
2018-09-29T07:41:44.813Z,12.64
2018-09-29T07:42:44.734Z,12.61
2018-09-29T07:43:44.651Z,12.64
2018-09-29T07:44:44.572Z,12.62
2018-09-29T07:45:44.502Z,12.61
2018-09-29T07:46:44.417Z,12.64
2018-09-29T07:47:44.337Z,12.73
2018-09-29T07:48:44.256Z,12.65
2018-09-29T07:49:44.183Z,12.73
2018-09-29T07:50:44.100Z,12.72
2018-09-29T07:51:44.030Z,12.76
2018-09-29T07:52:43.943Z,12.73
2018-09-29T07:53:43.864Z,12.72
2018-09-29T07:54:43.806Z,12.73
2018-09-29T07:55:43.713Z,12.73
2018-09-29T07:56:43.628Z,12.82
2018-09-29T07:57:43.574Z,12.83
2018-09-29T07:58:43.469Z,12.80
2018-09-29T07:59:43.394Z,12.83
2018-09-29T08:00:43.311Z,12.87
2018-09-29T08:01:43.236Z,12.85
2018-09-29T08:02:43.156Z,12.87
2018-09-29T08:03:43.074Z,12.86
2018-09-29T08:04:43.001Z,12.90
2018-09-29T08:05:42.917Z,12.95
2018-09-29T08:06:42.837Z,12.91
2018-09-29T08:07:42.773Z,12.95
2018-09-29T08:08:42.687Z,12.93
2018-09-29T08:09:42.602Z,13.00
2018-09-29T08:10:42.525Z,12.93
2018-09-29T08:11:42.442Z,12.95
2018-09-29T08:12:42.364Z,13.01
2018-09-29T08:13:42.286Z,13.09
2018-09-29T08:14:42.225Z,13.08
2018-09-29T08:15:42.128Z,13.09
2018-09-29T08:16:42.049Z,13.11
2018-09-29T08:17:41.974Z,13.04
2018-09-29T08:18:41.894Z,13.12
2018-09-29T08:19:41.816Z,13.12
2018-09-29T08:20:41.738Z,13.20
2018-09-29T08:21:41.661Z,13.16
2018-09-29T08:22:41.579Z,13.11
2018-09-29T08:23:41.500Z,13.22
2018-09-29T08:24:41.425Z,13.25
2018-09-29T08:25:41.342Z,13.20
2018-09-29T08:26:41.268Z,13.20
2018-09-29T08:27:41.187Z,13.25
2018-09-29T08:28:41.108Z,13.22
2018-09-29T08:29:41.031Z,13.19
2018-09-29T08:30:40.956Z,13.28
2018-09-29T08:31:40.885Z,13.28
2018-09-29T08:32:40.797Z,13.28
2018-09-29T08:33:40.715Z,13.31
2018-09-29T08:34:40.642Z,13.22
2018-09-29T08:35:40.561Z,13.23
2018-09-29T08:36:40.483Z,13.39
2018-09-29T08:37:40.440Z,13.25
2018-09-29T08:38:40.324Z,13.25
2018-09-29T08:39:40.248Z,13.37
2018-09-29T08:40:40.167Z,13.39
2018-09-29T08:41:40.092Z,13.31
2018-09-29T08:42:40.017Z,13.35
2018-09-29T08:43:39.934Z,13.38
2018-09-29T08:44:39.857Z,13.38
2018-09-29T08:45:39.778Z,13.39
2018-09-29T08:46:39.736Z,13.31
2018-09-29T08:47:39.623Z,13.44
2018-09-29T08:48:39.545Z,13.47
2018-09-29T08:49:39.464Z,13.44
2018-09-29T08:50:39.389Z,13.47
2018-09-29T08:51:39.313Z,13.50
2018-09-29T08:52:39.230Z,13.53
2018-09-29T08:53:39.238Z,13.47
2018-09-29T08:54:39.076Z,13.54
2018-09-29T08:55:39.000Z,13.57
2018-09-29T08:56:38.922Z,13.57
2018-09-29T08:57:38.841Z,13.50
2018-09-29T08:58:38.767Z,13.57
2018-09-29T08:59:38.686Z,13.63
2018-09-29T09:00:38.605Z,13.65
2018-09-29T09:01:38.544Z,13.63
2018-09-29T09:02:38.451Z,13.63
2018-09-29T09:03:38.373Z,13.67
2018-09-29T09:04:38.294Z,13.68
2018-09-29T09:05:38.216Z,13.74
2018-09-29T09:06:38.142Z,13.71
2018-09-29T09:07:38.059Z,13.71
2018-09-29T09:08:37.980Z,13.71
2018-09-29T09:09:37.906Z,13.72
2018-09-29T09:10:37.842Z,13.68
2018-09-29T09:11:37.753Z,13.71
2018-09-29T09:12:37.671Z,13.78
2018-09-29T09:13:37.610Z,13.78
2018-09-29T09:14:37.514Z,13.86
2018-09-29T09:15:37.441Z,13.78
2018-09-29T09:16:37.359Z,13.79
2018-09-29T09:17:37.284Z,13.72
2018-09-29T09:18:37.203Z,13.77
2018-09-29T09:19:37.128Z,13.85
2018-09-29T09:20:37.052Z,13.92
2018-09-29T09:21:36.971Z,13.79
2018-09-29T09:22:36.894Z,13.75
2018-09-29T09:23:36.856Z,13.87
2018-09-29T09:24:36.735Z,13.78
2018-09-29T09:25:36.667Z,13.89
2018-09-29T09:26:36.585Z,13.77
2018-09-29T09:27:36.502Z,13.83
2018-09-29T09:28:36.424Z,13.90
2018-09-29T09:29:36.348Z,13.86
2018-09-29T09:30:36.270Z,13.87
2018-09-29T09:31:36.197Z,13.89
2018-09-29T09:32:36.116Z,13.89
2018-09-29T09:33:36.036Z,13.86
2018-09-29T09:34:35.959Z,13.93
2018-09-29T09:35:35.884Z,13.93
2018-09-29T09:36:35.805Z,14.00
2018-09-29T09:37:35.726Z,13.96
2018-09-29T09:38:35.649Z,13.99
2018-09-29T09:39:35.570Z,13.97
2018-09-29T09:40:35.493Z,14.00
2018-09-29T09:41:35.415Z,13.96
2018-09-29T09:42:35.355Z,14.00
2018-09-29T09:43:35.274Z,13.97
2018-09-29T09:44:35.180Z,14.05
2018-09-29T09:45:35.105Z,14.07
2018-09-29T09:46:35.027Z,14.10
2018-09-29T09:47:34.954Z,14.12
2018-09-29T09:48:34.873Z,14.14
2018-09-29T09:49:34.852Z,14.17
2018-09-29T09:50:34.718Z,14.20
2018-09-29T09:51:34.640Z,14.28
2018-09-29T09:52:34.575Z,14.29
2018-09-29T09:53:34.484Z,14.30
2018-09-29T09:54:34.430Z,14.33
2018-09-29T09:55:34.330Z,14.26
2018-09-29T09:56:34.252Z,14.28
2018-09-29T09:57:34.172Z,14.30
2018-09-29T09:58:34.097Z,14.30
2018-09-29T09:59:34.020Z,14.40
2018-09-29T10:00:33.945Z,14.40
2018-09-29T10:01:33.865Z,14.47
2018-09-29T10:02:33.790Z,14.44
2018-09-29T10:03:33.714Z,14.51
2018-09-29T10:04:33.642Z,14.45
2018-09-29T10:05:33.563Z,14.51
2018-09-29T10:06:33.532Z,14.50
2018-09-29T10:07:33.406Z,14.53
2018-09-29T10:08:33.328Z,14.53
2018-09-29T10:09:33.249Z,14.69
2018-09-29T10:10:33.173Z,14.60
2018-09-29T10:11:33.092Z,14.62
2018-09-29T10:12:33.044Z,14.62
2018-09-29T10:13:32.940Z,14.73
2018-09-29T10:14:32.863Z,14.78
2018-09-29T10:15:32.786Z,14.79
2018-09-29T10:16:32.709Z,14.77
2018-09-29T10:17:32.717Z,14.89
2018-09-29T10:18:32.556Z,14.92
2018-09-29T10:19:32.477Z,14.92
2018-09-29T10:20:32.400Z,14.94
2018-09-29T10:21:32.324Z,15.03
2018-09-29T10:22:32.247Z,15.15
2018-09-29T10:23:32.172Z,15.17
2018-09-29T10:24:32.093Z,15.28
2018-09-29T10:25:32.017Z,15.27
2018-09-29T10:26:31.940Z,15.28
2018-09-29T10:27:31.899Z,15.24
2018-09-29T10:28:31.791Z,15.17
2018-09-29T10:29:31.714Z,15.33
2018-09-29T10:30:31.637Z,15.31
2018-09-29T10:31:31.558Z,15.43
2018-09-29T10:32:31.482Z,15.47
2018-09-29T10:33:31.406Z,15.51
2018-09-29T10:34:31.330Z,15.64
2018-09-29T10:35:31.255Z,15.72
2018-09-29T10:36:31.179Z,15.79
2018-09-29T10:37:31.104Z,15.98
2018-09-29T10:38:31.036Z,16.15
2018-09-29T10:39:30.954Z,16.54
2018-09-29T10:40:30.875Z,16.79
2018-09-29T10:41:30.800Z,17.23
2018-09-29T10:42:30.728Z,17.64
2018-09-29T10:43:30.660Z,17.90
2018-09-29T10:44:30.574Z,18.26
2018-09-29T10:45:30.502Z,18.53
2018-09-29T10:46:30.427Z,18.81
2018-09-29T10:47:30.355Z,19.02
2018-09-29T10:48:30.279Z,19.29
2018-09-29T10:49:30.206Z,19.39
2018-09-29T10:50:30.134Z,19.64
2018-09-29T10:51:30.066Z,19.85
2018-09-29T10:52:29.997Z,19.95
2018-09-29T10:53:29.918Z,20.13
2018-09-29T10:54:29.847Z,20.07
2018-09-29T10:55:29.777Z,20.22
2018-09-29T10:56:29.714Z,20.24
2018-09-29T10:57:29.640Z,20.36
2018-09-29T10:58:29.567Z,20.50
2018-09-29T10:59:29.498Z,20.60
2018-09-29T11:00:29.447Z,20.67
2018-09-29T11:01:29.363Z,20.81
2018-09-29T11:02:29.306Z,20.75
2018-09-29T11:03:29.229Z,20.75
2018-09-29T11:04:29.164Z,20.77
2018-09-29T11:05:29.096Z,20.72
2018-09-29T11:06:29.029Z,20.78
2018-09-29T11:07:28.966Z,20.77
2018-09-29T11:08:28.898Z,20.74
2018-09-29T11:09:28.832Z,20.72
2018-09-29T11:10:28.768Z,20.67
2018-09-29T11:11:28.703Z,20.63
2018-09-29T11:12:28.639Z,20.70
2018-09-29T11:13:28.574Z,20.77
2018-09-29T11:14:28.615Z,20.77
2018-09-29T11:15:28.451Z,20.80
2018-09-29T11:16:28.394Z,20.88
2018-09-29T11:17:28.323Z,20.87
2018-09-29T11:18:28.254Z,20.99
2018-09-29T11:19:28.197Z,21.02
2018-09-29T11:20:28.131Z,21.02
2018-09-29T11:21:28.065Z,21.12
2018-09-29T11:22:28.001Z,21.18
2018-09-29T11:23:27.941Z,21.33
2018-09-29T11:24:27.880Z,21.39
2018-09-29T11:25:27.815Z,21.51
2018-09-29T11:26:27.753Z,21.51
2018-09-29T11:27:27.688Z,21.69
2018-09-29T11:28:27.628Z,21.82
2018-09-29T11:29:27.571Z,22.06
2018-09-29T11:30:27.506Z,22.23
2018-09-29T11:31:27.445Z,22.41
2018-09-29T11:32:27.380Z,22.63
2018-09-29T11:33:27.318Z,22.90
2018-09-29T11:34:27.261Z,23.13
2018-09-29T11:35:27.199Z,23.36
2018-09-29T11:36:27.140Z,23.50
2018-09-29T11:37:27.079Z,23.69
2018-09-29T11:38:27.018Z,23.80
2018-09-29T11:39:27.051Z,24.05
2018-09-29T11:40:26.937Z,24.16
2018-09-29T11:41:26.835Z,24.38
2018-09-29T11:42:26.796Z,24.39
2018-09-29T11:43:26.715Z,24.40
2018-09-29T11:44:26.653Z,24.53
2018-09-29T11:45:26.596Z,24.61
2018-09-29T11:46:26.535Z,24.74
2018-09-29T11:47:26.481Z,24.84
2018-09-29T11:48:26.418Z,24.89
2018-09-29T11:49:26.372Z,25.08
2018-09-29T11:50:26.299Z,25.25
2018-09-29T11:51:26.239Z,25.40
2018-09-29T11:52:26.179Z,25.50
2018-09-29T11:53:26.120Z,25.60
2018-09-29T11:54:26.061Z,25.66
2018-09-29T11:55:26.007Z,25.87
2018-09-29T11:56:25.944Z,26.15
2018-09-29T11:57:25.885Z,26.36
2018-09-29T11:58:25.827Z,26.56
2018-09-29T11:59:25.772Z,26.84
2018-09-29T12:00:25.710Z,27.00
2018-09-29T12:01:25.655Z,27.05
2018-09-29T12:02:25.597Z,27.30
2018-09-29T12:03:25.536Z,27.36
2018-09-29T12:04:25.477Z,27.47
2018-09-29T12:05:25.419Z,27.71
2018-09-29T12:06:25.408Z,27.85
2018-09-29T12:07:25.343Z,27.98
2018-09-29T12:08:25.245Z,28.22
2018-09-29T12:09:25.190Z,28.42
2018-09-29T12:10:25.284Z,28.72
2018-09-29T12:11:25.157Z,28.93
2018-09-29T12:12:25.129Z,29.08
2018-09-29T12:13:24.965Z,29.20
2018-09-29T12:14:24.902Z,29.38
2018-09-29T12:15:24.843Z,29.49
2018-09-29T12:16:24.788Z,29.53
2018-09-29T12:17:24.732Z,29.56
2018-09-29T12:18:24.672Z,29.63
2018-09-29T12:19:24.613Z,29.59
2018-09-29T12:20:24.594Z,29.87
2018-09-29T12:21:24.503Z,29.94
2018-09-29T12:22:24.508Z,30.00
2018-09-29T12:23:24.384Z,30.09
2018-09-29T12:24:24.329Z,30.18
2018-09-29T12:25:24.274Z,30.19
2018-09-29T12:26:24.215Z,30.30
2018-09-29T12:27:24.922Z,30.43
2018-09-29T12:28:24.122Z,30.39
2018-09-29T12:29:24.139Z,30.39
2018-09-29T12:33:48.409Z,30.54
2018-09-29T12:34:48.290Z,30.57
2018-09-29T12:36:42.672Z,30.50
2018-09-29T12:37:42.553Z,30.51
2018-09-29T12:39:59.728Z,30.31
2018-09-29T12:40:59.479Z,30.13
2018-09-29T12:42:54.784Z,29.95
2018-09-29T12:43:54.621Z,29.82
2018-09-29T12:46:00.240Z,29.59
2018-09-29T12:47:10.161Z,29.49
2018-09-29T12:49:17.088Z,29.10
2018-09-29T12:50:06.773Z,28.94
2018-09-29T12:52:11.140Z,28.57
2018-09-29T12:53:11.026Z,28.32
2018-09-29T12:55:15.416Z,28.12
2018-09-29T12:56:15.358Z,28.10
2018-09-29T12:58:19.744Z,27.90
2018-09-29T12:59:19.642Z,27.95
2018-09-29T13:01:24.981Z,27.60
2018-09-29T13:02:24.920Z,27.55
2018-09-29T13:04:29.321Z,27.21
2018-09-29T13:05:29.210Z,26.93
2018-09-29T13:06:29.152Z,26.62
2018-09-29T13:07:29.105Z,26.53
2018-09-29T13:08:29.037Z,26.43
2018-09-29T13:09:28.980Z,26.26
2018-09-29T13:10:28.921Z,26.16
2018-09-29T13:11:28.865Z,26.06
2018-09-29T13:12:28.809Z,25.96
2018-09-29T13:13:28.748Z,25.85
2018-09-29T13:14:28.685Z,25.77
2018-09-29T13:15:28.629Z,25.72
2018-09-29T13:16:36.226Z,25.63
2018-09-29T13:18:32.468Z,25.40
2018-09-29T13:19:32.361Z,25.35
2018-09-29T13:20:32.300Z,25.33
2018-09-29T13:21:32.243Z,25.22